This is the latest recevied weather packets stored in our database for station/object EA1FBN. If no packets are shown the sender has not sent any weather packets the latest 10 day(s).
| Time | Temp. | Humidity | Pressure | Rain* | Wind** | Luminosity | Snow |
|---|---|---|---|---|---|---|---|
| 1777991409 | 13.89° C | 54% | 1014.3 hPa | 0 mm | - | - | - |
| 1777991109 | 13.33° C | 59% | 1014.3 hPa | 0 mm | - | - | - |
| 1777990809 | 13.33° C | 57% | 1014.4 hPa | 0 mm | - | - | - |
| 1777990509 | 13.33° C | 55% | 1014.4 hPa | 0 mm | - | - | - |
| 1777989909 | 13.33° C | 56% | 1014.5 hPa | 0 mm | - | - | - |
| 1777989609 | 13.89° C | 56% | 1014.5 hPa | 0 mm | - | - | - |
| 1777989309 | 13.33° C | 55% | 1014.6 hPa | 0 mm | - | - | - |
| 1777989009 | 13.33° C | 55% | 1014.6 hPa | 0 mm | - | - | - |
| 1777988709 | 13.33° C | 57% | 1014.7 hPa | 0 mm | - | - | - |
| 1777988409 | 12.78° C | 57% | 1014.7 hPa | 0 mm | - | - | - |
| 1777988109 | 12.78° C | 57% | 1014.8 hPa | 0 mm | - | - | - |
| 1777987809 | 12.78° C | 58% | 1014.8 hPa | 0 mm | - | - | - |
| 1777987509 | 12.22° C | 61% | 1014.9 hPa | 0 mm | - | - | - |
| 1777987209 | 11.67° C | 63% | 1014.9 hPa | 0 mm | - | - | - |
| 1777986909 | 11.67° C | 62% | 1014.9 hPa | 0 mm | - | - | - |
| 1777986609 | 11.67° C | 61% | 1015 hPa | 0 mm | - | - | - |
| 1777986310 | 12.22° C | 60% | 1015 hPa | 0 mm | - | - | - |
| 1777986010 | 12.78° C | 57% | 1014.9 hPa | 0 mm | - | - | - |
| 1777985710 | 12.78° C | 59% | 1015 hPa | 0 mm | - | - | - |
| 1777985410 | 12.22° C | 62% | 1015 hPa | 0 mm | - | - | - |
| 1777985110 | 12.22° C | 59% | 1015.2 hPa | 0 mm | - | - | - |
| 1777984810 | 12.22° C | 60% | 1015.3 hPa | 0 mm | - | - | - |
| 1777984509 | 11.67° C | 61% | 1015.3 hPa | 0 mm | - | - | - |
| 1777984210 | 11.11° C | 62% | 1015.4 hPa | 0 mm | - | - | - |
| 1777983910 | 11.67° C | 61% | 1015.4 hPa | 0 mm | - | - | - |
* Rain latest hour (hover to see other rain measurements)
** Current wind speed in m/s (hover to see current wind gust speed)